Time;durP1;ratioP1;P1;durP2;ratioP2;P2;SDS_P1;SDS_P2;PMS_P1;PMS_P2;Temp;Humidity;BMP_temperature;BMP_pressure;BME280_temperature;BME280_humidity;BME280_pressure;Samples;Min_cycle;Max_cycle;Signal;HPM_P1;HPM_P2
2024/01/28 00:00:35;;;;;;;31.33;7.37;;;0.90;99.90;;;;;;4385380;28;656081;-72
2024/01/28 00:03:22;;;;;;;27.93;8.27;;;0.80;99.90;;;;;;4408177;28;655433;-73
2024/01/28 00:06:10;;;;;;;32.80;7.67;;;0.90;99.90;;;;;;4423096;28;655811;-72
2024/01/28 00:08:57;;;;;;;27.63;7.63;;;0.90;99.90;;;;;;4395851;28;655598;-73
2024/01/28 00:11:44;;;;;;;31.17;8.13;;;1.00;99.90;;;;;;4392957;28;656574;-72
2024/01/28 00:14:33;;;;;;;34.17;8.17;;;1.00;99.90;;;;;;4403257;28;655700;-73
2024/01/28 00:17:20;;;;;;;29.33;9.33;;;1.00;99.90;;;;;;4392774;28;656212;-72
2024/01/28 00:20:09;;;;;;;35.40;8.70;;;1.10;99.90;;;;;;4412168;28;655484;-72
2024/01/28 00:22:57;;;;;;;31.03;8.93;;;1.10;99.90;;;;;;4400522;28;655010;-72
2024/01/28 00:25:44;;;;;;;32.90;7.67;;;1.10;99.90;;;;;;4390966;28;656200;-72
2024/01/28 00:28:31;;;;;;;34.67;9.03;;;1.20;99.90;;;;;;4417672;28;655743;-73
2024/01/28 00:31:20;;;;;;;40.05;9.55;;;1.10;99.90;;;;;;4398211;28;655795;-72
2024/01/28 00:34:07;;;;;;;35.20;11.13;;;1.20;99.90;;;;;;4412912;28;655371;-72
2024/01/28 00:36:55;;;;;;;39.30;10.17;;;1.20;99.90;;;;;;4418210;28;656759;-73
2024/01/28 00:39:42;;;;;;;37.00;10.87;;;1.30;99.90;;;;;;4395847;28;656719;-72
2024/01/28 00:42:30;;;;;;;36.23;11.17;;;1.30;99.90;;;;;;4411922;28;657516;-73
2024/01/28 00:45:17;;;;;;;34.83;9.23;;;1.30;99.90;;;;;;4397190;28;657200;-73
2024/01/28 00:48:06;;;;;;;47.60;10.77;;;1.20;99.90;;;;;;4387631;28;656413;-72
2024/01/28 00:50:53;;;;;;;32.57;8.80;;;1.20;99.90;;;;;;4382546;28;656673;-72
2024/01/28 00:53:41;;;;;;;26.63;8.43;;;1.20;99.90;;;;;;4403562;28;655774;-72
2024/01/28 00:56:28;;;;;;;38.50;9.83;;;1.20;99.90;;;;;;4391725;28;655144;-72
2024/01/28 00:59:15;;;;;;;44.93;12.37;;;1.20;99.90;;;;;;4417172;28;656460;-72
2024/01/28 01:02:02;;;;;;;44.60;12.17;;;1.20;99.90;;;;;;4400939;28;656426;-73
2024/01/28 01:04:51;;;;;;;35.23;11.20;;;1.20;99.90;;;;;;4416169;28;656395;-72
2024/01/28 01:07:38;;;;;;;47.40;14.43;;;1.20;99.90;;;;;;4378407;28;656801;-73
2024/01/28 01:10:26;;;;;;;38.37;12.87;;;1.20;99.90;;;;;;4415110;28;657477;-72
2024/01/28 01:13:14;;;;;;;38.47;12.67;;;1.30;99.90;;;;;;4400509;28;657365;-72
2024/01/28 01:16:01;;;;;;;49.63;12.93;;;1.30;99.90;;;;;;4417028;28;657236;-72
2024/01/28 01:18:48;;;;;;;37.60;12.93;;;1.40;99.90;;;;;;4387592;28;656585;-72
2024/01/28 01:21:36;;;;;;;44.27;14.17;;;1.40;99.90;;;;;;4425722;28;657064;-72
2024/01/28 01:24:24;;;;;;;40.50;11.73;;;1.40;99.90;;;;;;4385693;28;656795;-72
2024/01/28 01:27:11;;;;;;;35.50;11.60;;;1.50;99.90;;;;;;4412427;28;656652;-72
2024/01/28 01:29:58;;;;;;;34.10;10.63;;;1.40;99.90;;;;;;4402507;28;656407;-72
2024/01/28 01:32:45;;;;;;;40.70;13.23;;;1.40;99.90;;;;;;4414544;28;656942;-72
2024/01/28 01:35:32;;;;;;;42.73;13.73;;;1.40;99.90;;;;;;4398297;28;656394;-72
2024/01/28 01:38:21;;;;;;;53.37;15.40;;;1.40;99.90;;;;;;4417270;28;656508;-72
2024/01/28 01:41:08;;;;;;;49.93;15.67;;;1.30;99.90;;;;;;4395436;28;656452;-72
2024/01/28 01:43:56;;;;;;;49.88;16.40;;;1.30;99.90;;;;;;4409506;28;657144;-72
2024/01/28 01:46:44;;;;;;;53.47;15.80;;;1.20;99.90;;;;;;4396244;28;656646;-72
2024/01/28 01:49:32;;;;;;;49.27;15.63;;;1.30;99.90;;;;;;4417640;28;657115;-72
2024/01/28 01:52:19;;;;;;;48.83;15.97;;;1.40;99.90;;;;;;4393522;28;658203;-72
2024/01/28 01:55:09;;;;;;;44.67;15.73;;;1.30;99.90;;;;;;4415459;28;657369;-72
2024/01/28 01:57:56;;;;;;;51.17;16.73;;;1.40;99.90;;;;;;4387689;28;656255;-72
2024/01/28 02:00:43;;;;;;;48.80;15.90;;;1.30;99.90;;;;;;4380978;28;656704;-72
2024/01/28 02:03:30;;;;;;;43.70;16.50;;;1.50;99.90;;;;;;4421160;28;656710;-72
2024/01/28 02:06:18;;;;;;;49.77;15.33;;;1.50;99.90;;;;;;4396922;28;656842;-72
2024/01/28 02:09:06;;;;;;;48.33;16.33;;;1.40;99.90;;;;;;4415274;28;656232;-72
2024/01/28 02:11:55;;;;;;;52.53;15.67;;;1.50;99.90;;;;;;4394178;28;656861;-72
2024/01/28 02:14:42;;;;;;;45.50;17.33;;;1.60;99.90;;;;;;4409336;28;657172;-72
2024/01/28 02:17:29;;;;;;;58.87;17.57;;;1.60;99.90;;;;;;4415803;28;657729;-72
2024/01/28 02:20:17;;;;;;;56.83;18.10;;;1.60;99.90;;;;;;4396863;28;658028;-72
2024/01/28 02:23:05;;;;;;;63.77;19.67;;;1.60;99.90;;;;;;4387179;28;658434;-72
2024/01/28 02:25:54;;;;;;;57.43;19.67;;;1.50;99.90;;;;;;4395940;28;658064;-72
2024/01/28 02:28:41;;;;;;;47.33;16.90;;;1.60;99.90;;;;;;4415812;28;657444;-72
2024/01/28 02:31:28;;;;;;;59.33;21.43;;;1.60;99.90;;;;;;4385039;28;657883;-72
2024/01/28 02:34:15;;;;;;;63.07;19.90;;;1.60;99.90;;;;;;4401773;28;657858;-72
2024/01/28 02:37:03;;;;;;;55.43;20.00;;;1.60;99.90;;;;;;4396543;28;659198;-72
2024/01/28 02:39:50;;;;;;;49.87;19.80;;;1.60;99.90;;;;;;4406107;28;657961;-72
2024/01/28 02:42:39;;;;;;;61.00;20.03;;;1.60;99.90;;;;;;4412852;28;657891;-72
2024/01/28 02:45:26;;;;;;;55.63;19.10;;;1.50;99.90;;;;;;4436517;28;657109;-72
2024/01/28 02:48:13;;;;;;;52.13;18.17;;;1.60;99.90;;;;;;4394447;28;657668;-72
2024/01/28 02:51:00;;;;;;;49.47;17.87;;;1.70;99.90;;;;;;4413324;28;658711;-72
2024/01/28 02:53:47;;;;;;;44.97;16.98;;;1.70;99.90;;;;;;4407857;28;657538;-72
2024/01/28 02:56:35;;;;;;;51.20;19.47;;;1.60;99.90;;;;;;4418532;28;658524;-72
2024/01/28 02:59:24;;;;;;;47.47;15.73;;;1.70;99.90;;;;;;4433928;28;658019;-72
2024/01/28 03:02:11;;;;;;;39.97;15.77;;;1.70;99.90;;;;;;4427891;28;658271;-72
2024/01/28 03:04:58;;;;;;;56.83;19.80;;;1.80;99.90;;;;;;4411091;28;657542;-72
2024/01/28 03:07:45;;;;;;;51.77;18.83;;;1.80;99.90;;;;;;4413521;28;657711;-72
2024/01/28 03:10:33;;;;;;;49.92;18.88;;;1.80;99.90;;;;;;4397604;28;657569;-72
2024/01/28 03:13:20;;;;;;;51.27;19.07;;;1.90;99.90;;;;;;4436846;28;659118;-72
2024/01/28 03:16:10;;;;;;;50.97;19.75;;;1.90;99.90;;;;;;4416900;28;657896;-72
2024/01/28 03:18:57;;;;;;;48.50;18.80;;;1.90;99.90;;;;;;4415650;28;657632;-72
2024/01/28 03:21:44;;;;;;;52.87;19.00;;;1.90;99.90;;;;;;4434058;28;657872;-72
2024/01/28 03:24:32;;;;;;;51.20;17.83;;;1.90;99.90;;;;;;4433787;28;658050;-72
2024/01/28 03:27:19;;;;;;;44.40;17.50;;;2.00;99.90;;;;;;4405108;28;657928;-72
2024/01/28 03:30:08;;;;;;;50.33;18.73;;;2.00;99.90;;;;;;4431486;28;657109;-72
2024/01/28 03:32:57;;;;;;;38.07;15.13;;;2.00;99.90;;;;;;4410501;28;658463;-72
2024/01/28 03:35:44;;;;;;;30.97;9.77;;;2.00;99.90;;;;;;4403147;28;657662;-72
2024/01/28 03:38:31;;;;;;;35.50;12.03;;;2.00;99.90;;;;;;4425142;28;656683;-72
2024/01/28 03:41:18;;;;;;;32.27;11.17;;;2.00;99.90;;;;;;4408918;28;657424;-72
2024/01/28 03:44:05;;;;;;;34.10;11.53;;;2.00;99.90;;;;;;4426695;28;657603;-72
2024/01/28 03:46:55;;;;;;;35.80;12.00;;;2.00;99.90;;;;;;4405508;28;657838;-72
2024/01/28 03:49:44;;;;;;;36.47;15.67;;;2.00;99.90;;;;;;4431340;28;659086;-72
2024/01/28 03:52:31;;;;;;;48.43;13.77;;;2.00;99.90;;;;;;4419951;28;657770;-72
2024/01/28 03:55:18;;;;;;;20.17;9.10;;;2.10;99.90;;;;;;4406709;28;657617;-72
2024/01/28 03:58:05;;;;;;;44.20;15.17;;;2.10;99.90;;;;;;4419424;28;656264;-72
2024/01/28 04:00:52;;;;;;;45.75;15.43;;;2.10;99.90;;;;;;4406323;28;657920;-72
2024/01/28 04:03:40;;;;;;;37.03;11.67;;;2.10;99.90;;;;;;4430634;28;657429;-72
2024/01/28 04:06:28;;;;;;;46.97;16.50;;;2.20;99.90;;;;;;4417840;28;657925;-72
2024/01/28 04:09:15;;;;;;;39.60;13.80;;;2.10;99.90;;;;;;4409081;28;657782;-72
2024/01/28 04:12:04;;;;;;;41.00;15.50;;;2.20;99.90;;;;;;4413992;28;658178;-72
2024/01/28 04:14:51;;;;;;;46.33;15.63;;;2.10;99.90;;;;;;4431581;28;657597;-72
2024/01/28 04:17:38;;;;;;;50.33;14.73;;;2.20;99.90;;;;;;4396491;28;657913;-72
2024/01/28 04:20:25;;;;;;;43.60;13.13;;;2.20;99.90;;;;;;4432998;28;657987;-72
2024/01/28 04:23:15;;;;;;;26.73;8.90;;;2.20;99.90;;;;;;4401838;28;658084;-72
2024/01/28 04:26:02;;;;;;;36.40;12.43;;;2.20;99.90;;;;;;4423068;28;656538;-72
2024/01/28 04:28:50;;;;;;;47.47;15.37;;;2.20;99.90;;;;;;4429466;28;658371;-72
2024/01/28 04:31:42;;;;;;;47.07;15.47;;;2.20;99.90;;;;;;4430847;28;657296;-72
2024/01/28 04:34:29;;;;;;;44.00;15.53;;;2.20;99.90;;;;;;4407568;28;657925;-72
2024/01/28 04:37:16;;;;;;;42.77;15.07;;;2.20;99.90;;;;;;4417786;28;657316;-72
2024/01/28 04:40:06;;;;;;;40.67;13.07;;;2.20;99.90;;;;;;4421752;28;657807;-72
2024/01/28 04:42:53;;;;;;;33.80;13.43;;;2.20;99.90;;;;;;4413519;28;658210;-72
2024/01/28 04:45:40;;;;;;;41.73;12.00;;;2.30;99.90;;;;;;4429691;28;658228;-72
2024/01/28 04:48:27;;;;;;;36.10;12.67;;;2.30;99.90;;;;;;4419050;28;657476;-72
2024/01/28 04:51:15;;;;;;;36.50;13.93;;;2.20;99.90;;;;;;4432202;28;657910;-72
2024/01/28 04:54:02;;;;;;;38.93;13.37;;;2.30;99.90;;;;;;4423262;28;657841;-72
2024/01/28 04:56:51;;;;;;;33.40;13.90;;;2.30;99.90;;;;;;4435636;28;658740;-72
2024/01/28 04:59:38;;;;;;;32.90;12.40;;;2.30;99.90;;;;;;4411925;28;657393;-72
2024/01/28 05:02:26;;;;;;;35.40;13.17;;;2.30;99.90;;;;;;4425794;28;657535;-72
2024/01/28 05:05:13;;;;;;;28.80;11.40;;;2.30;99.90;;;;;;4411554;28;657953;-72
2024/01/28 05:08:00;;;;;;;36.70;12.17;;;2.30;99.90;;;;;;4434408;28;658615;-72
2024/01/28 05:10:48;;;;;;;37.53;11.77;;;2.30;99.90;;;;;;4411322;28;657236;-73
2024/01/28 05:13:37;;;;;;;31.63;11.40;;;2.30;99.90;;;;;;4430973;28;657661;-73
2024/01/28 05:16:24;;;;;;;32.43;11.97;;;2.30;99.90;;;;;;4403880;28;657742;-72
2024/01/28 05:19:11;;;;;;;37.20;11.70;;;2.30;99.90;;;;;;4424764;28;657748;-72
2024/01/28 05:21:58;;;;;;;27.30;11.30;;;2.40;99.90;;;;;;4418873;28;657513;-72
2024/01/28 05:24:49;;;;;;;32.58;10.80;;;2.30;99.90;;;;;;4435689;28;658386;-72
2024/01/28 05:27:37;;;;;;;31.83;10.60;;;2.30;99.90;;;;;;4398528;28;657577;-72
2024/01/28 05:30:25;;;;;;;26.23;10.30;;;2.30;99.90;;;;;;4418343;28;658334;-72
2024/01/28 05:33:13;;;;;;;38.37;10.47;;;2.30;99.90;;;;;;4419064;28;658458;-72
2024/01/28 05:36:00;;;;;;;32.03;11.43;;;2.30;99.90;;;;;;4434702;28;658803;-72
2024/01/28 05:38:47;;;;;;;24.57;10.70;;;2.20;99.90;;;;;;4425538;28;658063;-72
2024/01/28 05:41:35;;;;;;;31.50;12.13;;;2.30;99.90;;;;;;4426243;28;658640;-72
2024/01/28 05:44:22;;;;;;;25.67;9.23;;;2.30;99.90;;;;;;4417891;28;656781;-72
2024/01/28 05:47:11;;;;;;;25.27;9.87;;;2.30;99.90;;;;;;4394337;28;657810;-72
2024/01/28 05:49:58;;;;;;;25.63;10.13;;;2.20;99.90;;;;;;4412533;28;656396;-72
2024/01/28 05:52:45;;;;;;;31.37;9.07;;;2.30;99.90;;;;;;4432178;28;657790;-72
2024/01/28 05:55:32;;;;;;;28.60;9.93;;;2.30;99.90;;;;;;4426757;28;656339;-72
2024/01/28 05:58:20;;;;;;;25.87;9.47;;;2.30;99.90;;;;;;4426567;28;656229;-72
2024/01/28 06:01:08;;;;;;;26.70;9.27;;;2.20;99.90;;;;;;4415379;28;656904;-72
2024/01/28 06:03:57;;;;;;;25.57;9.73;;;2.30;99.90;;;;;;4431516;28;656953;-72
2024/01/28 06:06:44;;;;;;;25.90;10.30;;;2.30;99.90;;;;;;4414791;28;656495;-72
2024/01/28 06:09:31;;;;;;;23.83;8.53;;;2.20;99.90;;;;;;4427174;28;657974;-71
2024/01/28 06:12:19;;;;;;;31.63;10.10;;;2.20;99.90;;;;;;4410433;28;656930;-71
2024/01/28 06:15:08;;;;;;;26.90;11.17;;;2.30;99.90;;;;;;4433213;28;658332;-71
2024/01/28 06:17:55;;;;;;;34.70;12.47;;;2.20;99.90;;;;;;4392096;28;657977;-71
2024/01/28 06:20:44;;;;;;;34.57;10.47;;;2.20;99.90;;;;;;4414095;28;658253;-71
2024/01/28 06:23:31;;;;;;;33.60;11.97;;;2.20;99.90;;;;;;4413208;28;657889;-71
2024/01/28 06:26:18;;;;;;;22.80;8.40;;;2.10;99.90;;;;;;4396167;28;657830;-71
2024/01/28 06:29:05;;;;;;;40.97;12.48;;;2.20;99.90;;;;;;4442112;28;656699;-71
2024/01/28 06:31:53;;;;;;;45.33;13.83;;;2.20;99.90;;;;;;4399205;28;657531;-72
2024/01/28 06:34:40;;;;;;;27.70;11.17;;;2.20;99.90;;;;;;4428894;28;657515;-71
2024/01/28 06:37:29;;;;;;;31.10;12.13;;;2.20;99.90;;;;;;4423366;28;657457;-71
2024/01/28 06:40:16;;;;;;;36.43;14.00;;;2.20;99.90;;;;;;4434708;28;658435;-71
2024/01/28 06:43:03;;;;;;;38.73;13.43;;;2.30;99.90;;;;;;4411248;28;657972;-71
2024/01/28 06:45:50;;;;;;;41.00;13.70;;;2.20;99.90;;;;;;4433506;28;657923;-71
2024/01/28 06:48:38;;;;;;;34.47;13.57;;;2.20;99.90;;;;;;4409244;28;657734;-71
2024/01/28 06:51:25;;;;;;;42.17;13.10;;;2.10;99.90;;;;;;4418838;28;658351;-71
2024/01/28 06:54:14;;;;;;;40.27;12.50;;;2.10;99.90;;;;;;4420884;28;657870;-71
2024/01/28 06:57:01;;;;;;;36.80;12.03;;;2.20;99.90;;;;;;4430473;28;657610;-72
2024/01/28 06:59:48;;;;;;;31.40;10.93;;;2.30;99.90;;;;;;4412719;28;658194;-71
2024/01/28 07:02:35;;;;;;;33.43;11.63;;;2.30;99.90;;;;;;4440604;28;657944;-71
2024/01/28 07:05:23;;;;;;;30.37;10.77;;;2.10;99.90;;;;;;4417174;28;657681;-71
2024/01/28 07:08:10;;;;;;;29.37;10.37;;;2.10;99.90;;;;;;4433750;28;658960;-74
2024/01/28 07:11:01;;;;;;;38.37;11.97;;;2.10;99.90;;;;;;4400825;28;657911;-74
2024/01/28 07:13:48;;;;;;;29.37;10.80;;;2.10;99.90;;;;;;4412007;28;657508;-74
2024/01/28 07:16:35;;;;;;;29.67;10.00;;;2.20;99.90;;;;;;4435018;28;657520;-74
2024/01/28 07:19:22;;;;;;;35.45;10.82;;;2.20;99.90;;;;;;4410542;28;658010;-74
2024/01/28 07:22:11;;;;;;;34.83;10.87;;;2.20;99.90;;;;;;4439574;28;657348;-74
2024/01/28 07:24:58;;;;;;;35.53;10.73;;;2.20;99.90;;;;;;4402522;28;657983;-74
2024/01/28 07:27:47;;;;;;;40.70;10.37;;;2.30;99.90;;;;;;4434543;28;658014;-73
2024/01/28 07:30:34;;;;;;;30.57;11.30;;;2.30;99.90;;;;;;4406356;28;658339;-74
2024/01/28 07:33:21;;;;;;;35.70;10.73;;;2.30;99.90;;;;;;4428401;28;657619;-74
2024/01/28 07:36:09;;;;;;;33.87;9.63;;;2.30;99.90;;;;;;4390078;28;657664;-74
2024/01/28 07:38:57;;;;;;;30.47;10.97;;;2.30;99.90;;;;;;4416675;28;656659;-74
2024/01/28 07:41:44;;;;;;;30.10;10.30;;;2.40;99.90;;;;;;4408486;28;657690;-74
2024/01/28 07:44:32;;;;;;;27.53;10.90;;;2.30;99.90;;;;;;4421415;28;657376;-74
2024/01/28 07:47:19;;;;;;;24.73;10.20;;;2.30;99.90;;;;;;4412848;28;658788;-74
2024/01/28 07:50:07;;;;;;;33.60;10.50;;;2.30;99.90;;;;;;4437543;28;656196;-73
2024/01/28 07:52:55;;;;;;;30.40;11.60;;;2.40;99.90;;;;;;4408723;28;658720;-74
2024/01/28 07:55:43;;;;;;;43.60;11.93;;;2.40;99.90;;;;;;4415116;28;657839;-74
2024/01/28 07:58:30;;;;;;;33.23;11.70;;;2.50;99.90;;;;;;4432020;28;657593;-73
2024/01/28 08:01:19;;;;;;;33.23;10.57;;;2.40;99.90;;;;;;4439440;28;657658;-73
2024/01/28 08:04:06;;;;;;;34.23;12.10;;;2.50;99.90;;;;;;4431944;28;657477;-74
2024/01/28 08:06:53;;;;;;;34.13;11.40;;;2.50;99.90;;;;;;4406315;28;657846;-73
2024/01/28 08:09:41;;;;;;;33.50;11.13;;;2.40;99.90;;;;;;4433876;28;657650;-74
2024/01/28 08:12:29;;;;;;;32.83;12.03;;;2.40;99.90;;;;;;4407116;28;657751;-73
2024/01/28 08:15:17;;;;;;;25.63;10.27;;;2.50;99.90;;;;;;4417899;28;657762;-74
2024/01/28 08:18:06;;;;;;;38.30;11.57;;;2.40;99.90;;;;;;4414043;28;658209;-74
2024/01/28 08:20:53;;;;;;;34.23;11.30;;;2.40;99.90;;;;;;4414682;28;657577;-73
2024/01/28 08:23:40;;;;;;;35.83;12.40;;;2.50;99.90;;;;;;4424141;28;658460;-73
2024/01/28 08:26:27;;;;;;;35.43;11.53;;;2.50;99.90;;;;;;4408946;28;658268;-73
2024/01/28 08:29:15;;;;;;;35.77;12.63;;;2.50;99.90;;;;;;4429856;28;657914;-73
2024/01/28 08:32:02;;;;;;;36.30;12.97;;;2.50;99.90;;;;;;4439207;28;657162;-74
2024/01/28 08:34:51;;;;;;;37.47;12.83;;;2.40;99.90;;;;;;4415906;28;658241;-74
2024/01/28 08:37:38;;;;;;;48.00;13.33;;;2.60;99.90;;;;;;4411988;28;657757;-73
2024/01/28 08:40:26;;;;;;;32.60;12.65;;;2.60;99.90;;;;;;4433720;28;657989;-74
2024/01/28 08:43:13;;;;;;;31.87;11.73;;;2.70;99.90;;;;;;4404296;28;657549;-73
2024/01/28 08:46:03;;;;;;;34.97;10.30;;;2.70;99.90;;;;;;4428250;28;658012;-73
2024/01/28 08:48:50;;;;;;;36.85;12.63;;;2.80;99.90;;;;;;4395663;28;658037;-73
2024/01/28 08:51:39;;;;;;;41.00;13.20;;;2.70;99.90;;;;;;4412930;28;658096;-73
2024/01/28 08:54:26;;;;;;;33.40;12.87;;;2.70;99.90;;;;;;4430943;28;657418;-73
2024/01/28 08:57:13;;;;;;;36.07;13.07;;;2.80;99.90;;;;;;4410142;28;657661;-73
2024/01/28 09:00:01;;;;;;;33.87;12.33;;;2.80;99.90;;;;;;4413615;28;657941;-74
2024/01/28 09:02:48;;;;;;;36.27;13.87;;;2.70;99.90;;;;;;4396611;28;657478;-74
2024/01/28 09:05:35;;;;;;;42.80;15.03;;;2.70;99.90;;;;;;4441022;28;657790;-73
2024/01/28 09:08:25;;;;;;;36.92;13.73;;;2.70;99.90;;;;;;4412971;28;657731;-73
2024/01/28 09:11:12;;;;;;;54.10;21.93;;;2.80;99.90;;;;;;4426726;28;657492;-73
2024/01/28 09:14:01;;;;;;;58.77;21.20;;;2.70;99.90;;;;;;4444217;28;657309;-73
2024/01/28 09:16:48;;;;;;;51.87;21.23;;;2.80;99.90;;;;;;4413817;28;657950;-73
2024/01/28 09:19:36;;;;;;;51.37;21.60;;;2.80;99.90;;;;;;4420790;28;658100;-73
2024/01/28 09:22:23;;;;;;;49.80;19.80;;;2.80;99.90;;;;;;4409928;28;659403;-73
2024/01/28 09:25:12;;;;;;;38.50;16.40;;;2.90;99.90;;;;;;4431586;28;658171;-73
2024/01/28 09:27:59;;;;;;;48.07;17.73;;;2.90;99.90;;;;;;4423556;28;658303;-74
2024/01/28 09:30:47;;;;;;;46.80;17.97;;;2.80;99.90;;;;;;4439346;28;657654;-73
2024/01/28 09:33:34;;;;;;;49.05;14.23;;;2.80;99.90;;;;;;4409933;28;658099;-73
2024/01/28 09:36:22;;;;;;;51.23;20.73;;;2.90;99.90;;;;;;4433226;28;657923;-73
2024/01/28 09:39:09;;;;;;;46.80;17.87;;;3.00;99.90;;;;;;4423811;28;657582;-73
2024/01/28 09:42:08;;;;;;;55.53;17.43;;;3.00;99.90;;;;;;4435542;28;656868;-74
2024/01/28 09:44:55;;;;;;;40.27;14.23;;;2.90;99.90;;;;;;4406418;28;657687;-74
2024/01/28 09:47:42;;;;;;;45.50;16.45;;;2.80;99.90;;;;;;4415229;28;657407;-74
2024/01/28 09:50:30;;;;;;;41.90;16.27;;;2.90;99.90;;;;;;4416582;28;657011;-74
2024/01/28 09:53:17;;;;;;;41.53;17.13;;;2.90;99.90;;;;;;4417796;28;657571;-74
2024/01/28 09:56:05;;;;;;;45.33;18.07;;;3.00;99.90;;;;;;4432957;28;657899;-74
2024/01/28 09:58:54;;;;;;;45.23;17.93;;;2.90;99.90;;;;;;4410399;28;657633;-74
2024/01/28 10:01:42;;;;;;;41.47;16.67;;;2.90;99.90;;;;;;4431376;28;657867;-73
2024/01/28 10:04:29;;;;;;;53.43;17.73;;;3.00;99.90;;;;;;4389310;28;658263;-74
2024/01/28 10:07:16;;;;;;;41.25;17.45;;;3.00;99.90;;;;;;4427947;28;657848;-74
2024/01/28 10:10:05;;;;;;;37.67;18.03;;;3.00;99.90;;;;;;4414151;28;657971;-74
2024/01/28 10:12:52;;;;;;;35.87;17.20;;;2.90;99.90;;;;;;4428876;28;658042;-74
2024/01/28 10:15:42;;;;;;;52.73;18.27;;;2.90;99.90;;;;;;4415355;28;658739;-74
2024/01/28 10:18:29;;;;;;;52.23;20.30;;;3.00;99.90;;;;;;4396342;28;657491;-74
2024/01/28 10:21:16;;;;;;;56.87;21.30;;;3.20;99.90;;;;;;4438125;28;657481;-74
2024/01/28 10:24:03;;;;;;;49.73;18.87;;;3.10;99.90;;;;;;4412298;28;657577;-73
2024/01/28 10:26:51;;;;;;;46.40;18.47;;;3.10;99.90;;;;;;4432651;28;657608;-74
2024/01/28 10:29:43;;;;;;;66.00;23.97;;;3.10;99.90;;;;;;4409580;28;657820;-73
2024/01/28 10:32:31;;;;;;;53.63;23.43;;;3.00;99.90;;;;;;4416507;28;657763;-73
2024/01/28 10:35:19;;;;;;;62.05;22.88;;;3.00;99.90;;;;;;4409214;28;657485;-73
2024/01/28 10:38:06;;;;;;;67.53;26.77;;;2.90;99.90;;;;;;4423686;28;658131;-73
2024/01/28 10:40:53;;;;;;;52.40;23.27;;;2.80;99.90;;;;;;4415729;28;657635;-73
2024/01/28 10:43:40;;;;;;;61.50;25.90;;;3.00;99.90;;;;;;4426201;28;658079;-73
2024/01/28 10:46:32;;;;;;;56.40;24.07;;;2.90;99.90;;;;;;4415498;28;658043;-73
2024/01/28 10:49:23;;;;;;;68.05;25.92;;;2.90;99.90;;;;;;4413674;28;658557;-73
2024/01/28 10:52:10;;;;;;;72.17;29.23;;;3.00;99.90;;;;;;4409009;28;657946;-73
2024/01/28 10:54:58;;;;;;;45.63;21.03;;;2.90;99.90;;;;;;4411116;28;657307;-73
2024/01/28 10:57:45;;;;;;;61.43;27.83;;;3.00;99.90;;;;;;4434041;28;658586;-74
2024/01/28 11:00:32;;;;;;;62.70;26.67;;;3.00;99.90;;;;;;4425234;28;657748;-73
2024/01/28 11:03:20;;;;;;;65.20;26.97;;;2.90;99.90;;;;;;4428724;28;658293;-73
2024/01/28 11:06:09;;;;;;;43.73;18.43;;;2.90;99.90;;;;;;4428963;28;657251;-73
2024/01/28 11:08:56;;;;;;;42.87;17.77;;;3.00;99.90;;;;;;4410073;28;657661;-73
2024/01/28 11:11:43;;;;;;;57.33;26.50;;;2.90;99.90;;;;;;4413208;28;657491;-74
2024/01/28 11:14:31;;;;;;;63.58;26.85;;;3.00;99.90;;;;;;4439190;28;658008;-73
2024/01/28 11:17:18;;;;;;;63.13;25.60;;;3.00;99.90;;;;;;4415318;28;657490;-74
2024/01/28 11:20:09;;;;;;;46.87;21.27;;;3.00;99.90;;;;;;4434201;28;657768;-73
2024/01/28 11:22:58;;;;;;;69.13;28.70;;;3.00;99.90;;;;;;4408123;28;658410;-73
2024/01/28 11:25:46;;;;;;;63.63;24.87;;;3.10;99.90;;;;;;4419655;28;658439;-73
2024/01/28 11:28:33;;;;;;;42.63;17.03;;;3.20;99.90;;;;;;4402528;28;657709;-73
2024/01/28 11:31:32;;;;;;;61.13;27.97;;;3.20;99.90;;;;;;4416760;28;657730;-73
2024/01/28 11:34:20;;;;;;;66.60;28.30;;;3.10;99.90;;;;;;4370236;28;657845;-73
2024/01/28 11:37:08;;;;;;;52.60;19.13;;;3.10;99.90;;;;;;4413959;28;657827;-74
2024/01/28 11:39:58;;;;;;;61.17;27.53;;;3.10;99.90;;;;;;4416942;28;658141;-73
2024/01/28 11:42:46;;;;;;;62.75;27.92;;;3.10;99.90;;;;;;4415567;28;657772;-73
2024/01/28 11:45:33;;;;;;;62.00;28.47;;;3.10;99.90;;;;;;4415272;28;658181;-73
2024/01/28 11:48:21;;;;;;;60.53;28.03;;;3.10;99.90;;;;;;4430333;28;657937;-74
2024/01/28 11:51:09;;;;;;;22.07;8.10;;;3.10;99.90;;;;;;4407019;28;657511;-73
2024/01/28 11:53:58;;;;;;;61.73;25.70;;;3.10;99.90;;;;;;4433382;28;656967;-73
2024/01/28 11:56:46;;;;;;;26.90;8.73;;;3.10;99.90;;;;;;4419553;28;658244;-73
2024/01/28 11:59:35;;;;;;;56.57;23.53;;;3.10;99.90;;;;;;4411415;28;656988;-74
2024/01/28 12:02:24;;;;;;;41.60;17.17;;;3.10;99.90;;;;;;4420780;28;658296;-73
2024/01/28 12:05:11;;;;;;;64.50;27.20;;;3.10;99.90;;;;;;4430114;28;657243;-74
2024/01/28 12:07:59;;;;;;;65.80;27.00;;;3.00;99.90;;;;;;4409844;28;657802;-73
2024/01/28 12:10:56;;;;;;;57.07;25.73;;;3.00;99.90;;;;;;4427034;28;657178;-73
2024/01/28 12:13:45;;;;;;;58.90;25.23;;;3.10;99.90;;;;;;4407396;28;657751;-74
2024/01/28 12:16:33;;;;;;;27.40;11.33;;;3.00;99.90;;;;;;4410321;28;657616;-73
2024/01/28 12:19:20;;;;;;;47.80;18.87;;;3.10;99.90;;;;;;4430405;28;658210;-73
2024/01/28 12:22:10;;;;;;;42.90;16.30;;;3.10;99.90;;;;;;4423981;28;657565;-73
2024/01/28 12:24:57;;;;;;;48.73;19.17;;;3.10;99.90;;;;;;4409491;28;657653;-73
2024/01/28 12:27:45;;;;;;;51.43;22.30;;;3.20;99.90;;;;;;4430272;28;659164;-74
2024/01/28 12:30:33;;;;;;;47.00;21.20;;;3.10;99.90;;;;;;4426428;28;657547;-73
2024/01/28 12:33:20;;;;;;;57.63;22.10;;;3.20;99.90;;;;;;4403992;28;658297;-73
2024/01/28 12:36:08;;;;;;;53.53;21.47;;;3.30;99.90;;;;;;4407432;28;657214;-73
2024/01/28 12:38:55;;;;;;;61.83;22.63;;;3.30;99.90;;;;;;4435576;28;657749;-74
2024/01/28 12:41:42;;;;;;;44.23;21.33;;;3.30;99.90;;;;;;4397505;28;657931;-74
2024/01/28 12:44:30;;;;;;;53.77;20.83;;;3.30;99.90;;;;;;4414627;28;657069;-73
2024/01/28 12:47:18;;;;;;;48.90;20.67;;;3.20;99.90;;;;;;4440195;28;658083;-74
2024/01/28 12:50:06;;;;;;;44.27;18.63;;;3.30;99.90;;;;;;4404165;28;657879;-74
2024/01/28 12:52:53;;;;;;;45.97;18.60;;;3.20;99.90;;;;;;4414012;28;657422;-74
2024/01/28 12:55:40;;;;;;;44.28;18.30;;;3.30;99.90;;;;;;4429826;28;658533;-74
2024/01/28 12:58:28;;;;;;;40.83;17.83;;;3.30;99.90;;;;;;4410723;28;658057;-74
2024/01/28 13:01:15;;;;;;;45.73;18.23;;;3.30;99.90;;;;;;4426909;28;658097;-74
2024/01/28 13:04:04;;;;;;;53.37;21.73;;;3.30;99.90;;;;;;4418492;28;657535;-74
2024/01/28 13:06:51;;;;;;;47.50;19.87;;;3.20;99.90;;;;;;4419784;28;657490;-74
2024/01/28 13:09:38;;;;;;;45.47;19.27;;;3.30;99.90;;;;;;4409293;28;657733;-74
2024/01/28 13:12:31;;;;;;;50.23;19.80;;;3.30;99.90;;;;;;4423622;28;658771;-73
2024/01/28 13:15:18;;;;;;;52.67;21.10;;;3.20;99.90;;;;;;4403934;28;657128;-73
2024/01/28 13:18:06;;;;;;;50.43;20.90;;;3.30;99.90;;;;;;4439589;28;658224;-74
2024/01/28 13:20:54;;;;;;;47.23;19.40;;;3.30;99.90;;;;;;4412159;28;657895;-73
2024/01/28 13:23:42;;;;;;;42.90;17.87;;;3.30;99.90;;;;;;4423277;28;657322;-74
2024/01/28 13:26:29;;;;;;;45.50;18.23;;;3.30;99.90;;;;;;4415452;28;658064;-74
2024/01/28 13:29:18;;;;;;;46.10;18.73;;;3.20;99.90;;;;;;4438358;28;657792;-74
2024/01/28 13:32:06;;;;;;;46.57;19.10;;;3.30;99.90;;;;;;4393110;28;658123;-74
2024/01/28 13:34:53;;;;;;;17.87;7.63;;;3.30;99.90;;;;;;4405516;28;657853;-73
2024/01/28 13:37:42;;;;;;;44.33;17.27;;;3.30;99.90;;;;;;4429071;28;657010;-73
2024/01/28 13:40:30;;;;;;;41.57;18.63;;;3.20;99.90;;;;;;4399420;28;658591;-74
2024/01/28 13:43:17;;;;;;;47.17;19.70;;;3.20;99.90;;;;;;4399983;28;657418;-74
2024/01/28 13:46:05;;;;;;;49.37;19.77;;;3.20;99.90;;;;;;4415034;28;658197;-74
2024/01/28 13:48:52;;;;;;;46.70;19.23;;;3.10;99.90;;;;;;4421011;28;657329;-74
2024/01/28 13:51:40;;;;;;;50.27;20.27;;;3.10;99.90;;;;;;4417190;28;658234;-74
2024/01/28 13:54:28;;;;;;;48.40;19.57;;;3.20;99.90;;;;;;4428695;28;658288;-74
2024/01/28 13:57:17;;;;;;;55.47;21.07;;;3.20;99.90;;;;;;4403525;28;657588;-74
2024/01/28 14:00:06;;;;;;;43.03;19.73;;;3.30;99.90;;;;;;4397603;28;657607;-74
2024/01/28 14:02:53;;;;;;;48.90;21.23;;;3.20;99.90;;;;;;4403142;28;657892;-74
2024/01/28 14:05:41;;;;;;;43.88;19.02;;;3.30;99.90;;;;;;4448412;28;658338;-73
2024/01/28 14:08:29;;;;;;;50.33;20.47;;;3.40;99.90;;;;;;4411264;28;658059;-73
2024/01/28 14:11:17;;;;;;;49.17;19.40;;;3.30;99.90;;;;;;4440056;28;658816;-74